Hatsu Ethic — VQFS4 — position and weather

sailwx.info

Track history (hours):
 
Tides and Currents Weather Stations Pressure Air Temp Water Temp Dewpoint Dewpoint Depression Visibility Wind Speed Wind Dir Waves Ship Positions

Hatsu Ethic

Last reported at 2015-Mar-29 14:31 UTC. Time now 2015-Mar-31 09:48 UTC.
Position N 35°53' E 025°33'.

Type: Ship (hazmat cat D). MMSI: 235603000.

Date/timePositionNaut miles runAvg speedWind from/ knotsBaromVisibWave heightAir tempDewpointWater temp
2015-Mar-29 14:31N 35°53' E 025°33'1616.3
2015-Mar-29 13:33N 36°02' E 025°17'1616.4
2015-Mar-29 12:33N 36°10' E 024°59'9716.1
2015-Mar-29 06:31N 37°28' E 023°47'1617.1
2015-Mar-29 05:33N 37°44' E 023°40'1212.4
2015-Mar-29 04:33N 37°56' E 023°37'2 1.8
2015-Mar-29 03:28N 37°57' E 023°35'0 0.0
2015-Mar-29 02:31N 37°57' E 023°35'0 0.0
2015-Mar-29 01:34N 37°57' E 023°35'0 0.0
2015-Mar-29 00:34N 37°57' E 023°35'0 0.0
2015-Mar-28 23:31N 37°57' E 023°35'0 0.0
2015-Mar-28 22:31N 37°57' E 023°35'0 0.0
2015-Mar-28 21:34N 37°57' E 023°35'0 0.0
2015-Mar-28 20:31N 37°57' E 023°35'0 0.0
2015-Mar-28 19:34N 37°57' E 023°35'0 0.0
2015-Mar-28 18:31N 37°57' E 023°35'0 0.0
2015-Mar-28 17:31N 37°57' E 023°35'0 0.0
2015-Mar-28 16:34N 37°57' E 023°35'0 0.0
2015-Mar-28 15:31N 37°57' E 023°35'0 0.0
2015-Mar-28 14:31N 37°57' E 023°35'0 0.0
2015-Mar-28 13:28N 37°57' E 023°35'0 0.0
2015-Mar-28 12:33N 37°57' E 023°35'3 3.0
2015-Mar-28 11:33N 37°54' E 023°36'2 1.9
2015-Mar-28 10:33N 37°53' E 023°38'1 1.4
2015-Mar-28 09:33N 37°52' E 023°38'1312.8
2015-Mar-28 08:33N 37°40' E 023°45'1413.2
2015-Mar-28 07:30N 37°26' E 023°45'  
2015-Mar-19 19:33N 37°26' E 023°43'1313.0
2015-Mar-19 18:33N 37°39' E 023°42'1312.9
2015-Mar-19 17:33N 37°51' E 023°36'7 5.8
2015-Mar-19 16:25N 37°57' E 023°35'0 0.0
2015-Mar-19 15:31N 37°57' E 023°35'  
Track history (hours):
 
Tides and Currents Weather Stations Pressure Air Temp Water Temp Dewpoint Dewpoint Depression Visibility Wind Speed Wind Dir Waves Ship Positions

Hatsu Ethic

Last reported at 2015-Mar-29 14:31 UTC. Time now 2015-Mar-31 09:48 UTC.
Position N 35°53' E 025°33'.

Type: Ship (hazmat cat D). MMSI: 235603000.

Date/timePositionNaut miles runAvg speedWind from/ knotsBaromVisibWave heightAir tempDewpointWater temp
2015-Mar-29 14:31N 35°53' E 025°33'1616.3
2015-Mar-29 13:33N 36°02' E 025°17'1616.4
2015-Mar-29 12:33N 36°10' E 024°59'9716.1
2015-Mar-29 06:31N 37°28' E 023°47'1617.1
2015-Mar-29 05:33N 37°44' E 023°40'1212.4
2015-Mar-29 04:33N 37°56' E 023°37'2 1.8
2015-Mar-29 03:28N 37°57' E 023°35'0 0.0
2015-Mar-29 02:31N 37°57' E 023°35'0 0.0
2015-Mar-29 01:34N 37°57' E 023°35'0 0.0
2015-Mar-29 00:34N 37°57' E 023°35'0 0.0
2015-Mar-28 23:31N 37°57' E 023°35'0 0.0
2015-Mar-28 22:31N 37°57' E 023°35'0 0.0
2015-Mar-28 21:34N 37°57' E 023°35'0 0.0
2015-Mar-28 20:31N 37°57' E 023°35'0 0.0
2015-Mar-28 19:34N 37°57' E 023°35'0 0.0
2015-Mar-28 18:31N 37°57' E 023°35'0 0.0
2015-Mar-28 17:31N 37°57' E 023°35'0 0.0
2015-Mar-28 16:34N 37°57' E 023°35'0 0.0
2015-Mar-28 15:31N 37°57' E 023°35'0 0.0
2015-Mar-28 14:31N 37°57' E 023°35'0 0.0
2015-Mar-28 13:28N 37°57' E 023°35'0 0.0
2015-Mar-28 12:33N 37°57' E 023°35'3 3.0
2015-Mar-28 11:33N 37°54' E 023°36'2 1.9
2015-Mar-28 10:33N 37°53' E 023°38'1 1.4
2015-Mar-28 09:33N 37°52' E 023°38'1312.8
2015-Mar-28 08:33N 37°40' E 023°45'1413.2
2015-Mar-28 07:30N 37°26' E 023°45'  
2015-Mar-19 19:33N 37°26' E 023°43'1313.0
2015-Mar-19 18:33N 37°39' E 023°42'1312.9
2015-Mar-19 17:33N 37°51' E 023°36'7 5.8
2015-Mar-19 16:25N 37°57' E 023°35'0 0.0
2015-Mar-19 15:31N 37°57' E 023°35'  

Dump ship's entire track history